createdAt,value
2023-02-13T00:04:01.177Z,4.55
2023-02-13T00:09:05.172Z,4.53
2023-02-13T00:14:08.429Z,4.54
2023-02-13T00:19:10.240Z,4.47
2023-02-13T00:24:12.160Z,4.44
2023-02-13T00:29:14.031Z,4.47
2023-02-13T00:34:15.879Z,4.42
2023-02-13T00:39:17.682Z,4.42
2023-02-13T00:44:19.696Z,4.28
2023-02-13T00:49:21.662Z,4.22
2023-02-13T00:54:23.516Z,4.24
2023-02-13T00:59:25.362Z,4.25
2023-02-13T01:04:27.271Z,4.19
2023-02-13T01:09:32.078Z,4.26
2023-02-13T01:14:34.081Z,4.26
2023-02-13T01:19:35.916Z,4.29
2023-02-13T01:24:37.757Z,4.39
2023-02-13T01:29:39.602Z,4.41
2023-02-13T01:34:41.501Z,4.43
2023-02-13T01:39:43.341Z,4.42
2023-02-13T01:44:48.080Z,4.46
2023-02-13T01:50:05.685Z,4.56
2023-02-13T01:55:09.288Z,4.57
2023-02-13T02:00:17.600Z,4.52
2023-02-13T02:05:21.884Z,4.54
2023-02-13T02:10:24.259Z,4.43
2023-02-13T02:15:27.135Z,4.32
2023-02-13T02:20:57.237Z,4.43
2023-02-13T02:26:44.163Z,4.24
2023-02-13T02:32:19.841Z,4.30
2023-02-13T02:37:52.138Z,4.37
2023-02-13T02:43:18.783Z,4.38
2023-02-13T02:49:02.818Z,4.26
2023-02-13T02:54:37.655Z,4.17
2023-02-13T03:00:15.508Z,4.17
2023-02-13T03:05:59.158Z,4.15
2023-02-13T03:11:19.701Z,3.98
2023-02-13T03:16:44.065Z,3.74
2023-02-13T03:22:21.572Z,3.75
2023-02-13T03:27:48.145Z,3.74
2023-02-13T03:33:39.473Z,3.78
2023-02-13T03:38:57.442Z,3.76
2023-02-13T03:44:23.200Z,3.86
2023-02-13T03:49:50.115Z,3.88
2023-02-13T03:55:18.651Z,3.84
2023-02-13T04:00:22.305Z,3.81
2023-02-13T04:05:28.438Z,3.66
2023-02-13T04:10:34.211Z,3.65
2023-02-13T04:16:10.320Z,3.77
2023-02-13T04:21:12.123Z,4.06
2023-02-13T04:26:18.716Z,4.01
2023-02-13T04:31:20.648Z,4.05
2023-02-13T04:36:22.571Z,3.95
2023-02-13T04:41:24.414Z,4.18
2023-02-13T04:46:26.392Z,3.98
2023-02-13T04:51:28.380Z,3.91
2023-02-13T04:56:30.235Z,3.98
2023-02-13T05:01:32.069Z,3.93
2023-02-13T05:06:33.919Z,3.94
2023-02-13T05:11:35.749Z,3.95
2023-02-13T05:16:37.601Z,4.02
2023-02-13T05:21:57.896Z,3.86
2023-02-13T05:26:59.726Z,3.76
2023-02-13T05:32:01.681Z,3.77
2023-02-13T05:37:03.606Z,3.68
2023-02-13T05:42:05.714Z,3.71
2023-02-13T05:47:07.547Z,3.70
2023-02-13T05:52:09.440Z,3.65
2023-02-13T05:57:11.339Z,3.59
2023-02-13T06:02:13.237Z,3.58
2023-02-13T06:07:15.053Z,3.51
2023-02-13T06:12:17.034Z,3.43
2023-02-13T06:17:18.879Z,3.37
2023-02-13T06:22:20.731Z,3.45
2023-02-13T06:27:22.631Z,3.46
2023-02-13T06:32:24.621Z,3.45
2023-02-13T06:37:26.442Z,3.44
2023-02-13T06:42:28.375Z,3.41
2023-02-13T06:47:30.314Z,3.41
2023-02-13T06:52:32.213Z,3.35
2023-02-13T06:57:34.660Z,3.37
2023-02-13T07:02:37.697Z,3.44
2023-02-13T07:07:41.318Z,3.47
2023-02-13T07:12:44.626Z,3.49
2023-02-13T07:17:47.613Z,3.49
2023-02-13T07:22:49.454Z,3.50
2023-02-13T07:27:51.250Z,3.41
2023-02-13T07:32:53.067Z,3.51
2023-02-13T07:37:55.403Z,3.55
2023-02-13T07:43:00.802Z,3.65
2023-02-13T07:48:02.630Z,3.69
2023-02-13T07:53:04.488Z,3.78
2023-02-13T07:58:06.334Z,3.77
2023-02-13T08:03:08.167Z,3.68
2023-02-13T08:08:10.050Z,3.66
2023-02-13T08:13:14.957Z,3.78
2023-02-13T08:18:18.860Z,3.90
2023-02-13T08:23:21.604Z,3.63
2023-02-13T08:28:23.527Z,3.92
2023-02-13T08:33:25.553Z,3.82
2023-02-13T08:38:27.403Z,3.82
2023-02-13T08:43:29.233Z,4.03
2023-02-13T08:48:31.230Z,4.23
2023-02-13T08:53:34.140Z,4.30
2023-02-13T08:58:36.041Z,4.32
2023-02-13T09:03:37.971Z,4.37
2023-02-13T09:08:39.793Z,4.41
2023-02-13T09:13:41.606Z,4.73
2023-02-13T09:18:43.417Z,4.60
2023-02-13T09:23:45.499Z,4.92
2023-02-13T09:28:47.391Z,5.49
2023-02-13T09:33:50.068Z,5.39
2023-02-13T09:38:54.340Z,5.38
2023-02-13T09:44:04.673Z,5.47
2023-02-13T09:49:19.845Z,5.56
2023-02-13T09:54:21.717Z,5.48
2023-02-13T09:59:43.293Z,5.15
2023-02-13T10:05:03.481Z,4.91
2023-02-13T10:10:11.350Z,5.04
2023-02-13T10:15:22.491Z,5.31
2023-02-13T10:20:39.773Z,5.39
2023-02-13T10:25:49.130Z,5.32
2023-02-13T10:30:55.252Z,5.30
2023-02-13T10:36:09.314Z,5.27
2023-02-13T10:41:25.836Z,5.47
2023-02-13T10:46:30.909Z,5.80
2023-02-13T10:51:40.000Z,6.28
2023-02-13T10:56:56.900Z,6.49
2023-02-13T11:02:27.217Z,7.06
2023-02-13T11:07:30.672Z,7.90
2023-02-13T11:12:34.524Z,8.01
2023-02-13T11:17:40.787Z,8.84
2023-02-13T11:22:43.071Z,10.40
2023-02-13T11:27:47.366Z,11.57
2023-02-13T11:33:06.815Z,11.19
2023-02-13T11:38:20.530Z,10.67
2023-02-13T11:43:30.236Z,10.77
2023-02-13T11:48:32.213Z,9.53
2023-02-13T11:53:40.181Z,7.85
2023-02-13T11:58:42.829Z,10.03
2023-02-13T12:03:44.773Z,12.91
2023-02-13T12:08:49.717Z,13.26
2023-02-13T12:13:52.756Z,13.58
2023-02-13T12:18:59.580Z,14.74
2023-02-13T12:24:15.586Z,14.98
2023-02-13T12:29:39.243Z,15.25
2023-02-13T12:34:58.435Z,16.92
2023-02-13T12:40:24.247Z,17.03
2023-02-13T12:45:49.091Z,17.28
2023-02-13T12:51:05.152Z,18.98
2023-02-13T12:56:15.922Z,18.40
2023-02-13T13:01:55.549Z,20.01
2023-02-13T13:07:41.995Z,20.50
2023-02-13T13:12:47.240Z,19.71
2023-02-13T13:18:17.597Z,19.23
2023-02-13T13:23:26.194Z,21.35
2023-02-13T13:28:43.718Z,22.54
2023-02-13T13:33:48.095Z,22.62
2023-02-13T13:39:21.765Z,23.26
2023-02-13T13:44:38.711Z,22.82
2023-02-13T13:49:53.906Z,23.74
2023-02-13T13:55:00.244Z,18.84
2023-02-13T14:00:14.194Z,13.98
2023-02-13T14:05:32.030Z,11.88
2023-02-13T14:10:33.943Z,11.25
2023-02-13T14:15:38.895Z,11.29
2023-02-13T14:20:44.433Z,10.61
2023-02-13T14:25:46.626Z,9.15
2023-02-13T14:30:50.132Z,8.91
2023-02-13T14:36:23.237Z,7.69
2023-02-13T14:42:01.848Z,6.85
2023-02-13T14:47:15.122Z,6.40
2023-02-13T14:52:26.534Z,6.12
2023-02-13T14:57:34.446Z,5.78
2023-02-13T15:02:44.652Z,5.68
2023-02-13T15:07:50.987Z,5.22
2023-02-13T15:13:01.563Z,5.08
2023-02-13T15:18:09.857Z,4.99
2023-02-13T15:23:32.699Z,4.87
2023-02-13T15:28:36.101Z,4.92
2023-02-13T15:33:51.088Z,4.87
2023-02-13T15:39:00.194Z,4.95
2023-02-13T15:44:03.336Z,5.00
2023-02-13T15:49:08.354Z,4.84
2023-02-13T15:54:31.187Z,4.78
2023-02-13T15:59:38.975Z,4.83
2023-02-13T16:04:42.303Z,4.83
2023-02-13T16:09:44.538Z,4.86
2023-02-13T16:14:59.956Z,4.72
2023-02-13T16:20:11.496Z,4.56
2023-02-13T16:25:13.346Z,4.45
2023-02-13T16:30:34.033Z,4.49
2023-02-13T16:35:38.339Z,4.55
2023-02-13T16:40:42.900Z,4.47
2023-02-13T16:45:44.852Z,4.52
2023-02-13T16:50:46.770Z,4.47
2023-02-13T16:55:57.764Z,4.43
2023-02-13T17:01:01.953Z,4.52
2023-02-13T17:06:04.004Z,4.51
2023-02-13T17:11:07.908Z,4.43
2023-02-13T17:16:10.232Z,4.41
2023-02-13T17:21:12.768Z,4.45
2023-02-13T17:26:14.545Z,4.52
2023-02-13T17:31:16.438Z,4.66
2023-02-13T17:36:18.387Z,4.43
2023-02-13T17:41:20.841Z,4.28
2023-02-13T17:46:22.776Z,4.34
2023-02-13T17:51:24.621Z,4.18
2023-02-13T17:56:26.459Z,4.02
2023-02-13T18:01:28.435Z,4.12
2023-02-13T18:06:30.365Z,4.27
2023-02-13T18:11:32.183Z,4.24
2023-02-13T18:16:33.962Z,4.31
2023-02-13T18:21:35.791Z,4.33
2023-02-13T18:26:37.686Z,4.32
2023-02-13T18:31:39.740Z,4.28
2023-02-13T18:36:41.576Z,4.40
2023-02-13T18:41:43.894Z,4.34
2023-02-13T18:46:45.762Z,4.32
2023-02-13T18:51:47.689Z,4.25
2023-02-13T18:56:49.957Z,4.24
2023-02-13T19:01:51.852Z,4.08
2023-02-13T19:06:53.809Z,4.09
2023-02-13T19:11:55.609Z,4.02
2023-02-13T19:16:57.422Z,3.97
2023-02-13T19:21:59.253Z,3.86
2023-02-13T19:27:01.165Z,3.95
2023-02-13T19:32:03.269Z,3.99
2023-02-13T19:37:05.270Z,4.13
2023-02-13T19:42:08.081Z,4.09
2023-02-13T19:47:13.201Z,4.18
2023-02-13T19:52:15.146Z,4.12
2023-02-13T19:57:18.442Z,4.13
2023-02-13T20:02:21.642Z,4.10
2023-02-13T20:07:23.521Z,4.00
2023-02-13T20:12:25.445Z,3.86
2023-02-13T20:17:27.390Z,3.93
2023-02-13T20:22:30.960Z,3.78
2023-02-13T20:27:32.815Z,3.78
2023-02-13T20:32:34.810Z,3.92
2023-02-13T20:37:36.720Z,3.90
2023-02-13T20:42:38.527Z,3.84
2023-02-13T20:47:42.842Z,3.84
2023-02-13T20:52:44.782Z,3.94
2023-02-13T20:57:46.672Z,3.76
2023-02-13T21:02:48.485Z,3.81
2023-02-13T21:07:50.386Z,3.94
2023-02-13T21:12:52.234Z,3.89
2023-02-13T21:17:54.177Z,3.78
2023-02-13T21:22:56.632Z,3.66
2023-02-13T21:27:59.110Z,3.61
2023-02-13T21:33:00.916Z,3.60
2023-02-13T21:38:02.727Z,3.54
2023-02-13T21:43:04.616Z,3.41
2023-02-13T21:48:06.577Z,3.52
2023-02-13T21:53:08.413Z,3.43
2023-02-13T21:58:10.286Z,3.34
2023-02-13T22:03:12.185Z,3.19
2023-02-13T22:08:14.035Z,3.19
2023-02-13T22:13:15.853Z,3.12
2023-02-13T22:18:17.661Z,3.21
2023-02-13T22:23:19.511Z,3.15
2023-02-13T22:28:21.323Z,3.09
2023-02-13T22:33:23.360Z,2.95
2023-02-13T22:38:25.318Z,3.03
2023-02-13T22:43:27.204Z,3.13
2023-02-13T22:48:29.057Z,3.11
2023-02-13T22:53:31.690Z,3.16
2023-02-13T22:58:34.067Z,3.01
2023-02-13T23:03:35.879Z,2.91
2023-02-13T23:08:38.031Z,2.72
2023-02-13T23:13:39.845Z,2.85
2023-02-13T23:18:42.287Z,2.79
2023-02-13T23:23:44.112Z,2.63
2023-02-13T23:28:46.060Z,2.49
2023-02-13T23:33:47.870Z,2.41
2023-02-13T23:38:49.687Z,2.43
2023-02-13T23:43:51.536Z,2.49
2023-02-13T23:48:53.401Z,2.33
2023-02-13T23:53:57.299Z,2.42
2023-02-13T23:58:59.265Z,2.37
